sensor_id;sensor_type;location;lat;lon;timestamp;P1;durP1;ratioP1;P2;durP2;ratioP2
5428;SDS011;2737;52.386;9.980;2022-12-17T00:00:50;55.53;;;24.40;;
5428;SDS011;2737;52.386;9.980;2022-12-17T00:03:35;63.13;;;28.67;;
5428;SDS011;2737;52.386;9.980;2022-12-17T00:06:20;48.87;;;24.40;;
5428;SDS011;2737;52.386;9.980;2022-12-17T00:09:05;49.17;;;25.30;;
5428;SDS011;2737;52.386;9.980;2022-12-17T00:11:49;46.00;;;23.90;;
5428;SDS011;2737;52.386;9.980;2022-12-17T00:14:34;50.07;;;24.53;;
5428;SDS011;2737;52.386;9.980;2022-12-17T00:17:18;42.50;;;21.63;;
5428;SDS011;2737;52.386;9.980;2022-12-17T00:20:03;44.87;;;21.37;;
5428;SDS011;2737;52.386;9.980;2022-12-17T00:22:51;40.43;;;21.60;;
5428;SDS011;2737;52.386;9.980;2022-12-17T00:25:41;50.47;;;22.97;;
5428;SDS011;2737;52.386;9.980;2022-12-17T00:28:25;61.13;;;22.73;;
5428;SDS011;2737;52.386;9.980;2022-12-17T00:31:21;47.93;;;22.20;;
5428;SDS011;2737;52.386;9.980;2022-12-17T00:34:06;48.10;;;22.47;;
5428;SDS011;2737;52.386;9.980;2022-12-17T00:36:51;48.30;;;22.57;;
5428;SDS011;2737;52.386;9.980;2022-12-17T00:39:37;49.00;;;22.80;;
5428;SDS011;2737;52.386;9.980;2022-12-17T00:42:21;43.90;;;22.20;;
5428;SDS011;2737;52.386;9.980;2022-12-17T00:45:06;48.63;;;25.77;;
5428;SDS011;2737;52.386;9.980;2022-12-17T00:47:51;56.30;;;25.43;;
5428;SDS011;2737;52.386;9.980;2022-12-17T00:50:35;52.43;;;25.60;;
5428;SDS011;2737;52.386;9.980;2022-12-17T00:53:20;45.83;;;23.17;;
5428;SDS011;2737;52.386;9.980;2022-12-17T00:56:06;50.87;;;22.90;;
5428;SDS011;2737;52.386;9.980;2022-12-17T00:58:50;51.50;;;24.77;;
5428;SDS011;2737;52.386;9.980;2022-12-17T01:01:35;53.10;;;24.63;;
5428;SDS011;2737;52.386;9.980;2022-12-17T01:04:19;50.47;;;24.90;;
5428;SDS011;2737;52.386;9.980;2022-12-17T01:07:04;72.47;;;32.40;;
5428;SDS011;2737;52.386;9.980;2022-12-17T01:09:49;81.97;;;37.90;;
5428;SDS011;2737;52.386;9.980;2022-12-17T01:12:35;52.77;;;25.70;;
5428;SDS011;2737;52.386;9.980;2022-12-17T01:15:19;55.13;;;28.07;;
5428;SDS011;2737;52.386;9.980;2022-12-17T01:18:04;51.80;;;25.30;;
5428;SDS011;2737;52.386;9.980;2022-12-17T01:20:54;52.83;;;23.37;;
5428;SDS011;2737;52.386;9.980;2022-12-17T01:23:39;50.40;;;22.53;;
5428;SDS011;2737;52.386;9.980;2022-12-17T01:26:23;46.70;;;23.47;;
5428;SDS011;2737;52.386;9.980;2022-12-17T01:29:09;48.60;;;22.87;;
5428;SDS011;2737;52.386;9.980;2022-12-17T01:31:53;42.63;;;21.87;;
5428;SDS011;2737;52.386;9.980;2022-12-17T01:34:37;47.83;;;23.80;;
5428;SDS011;2737;52.386;9.980;2022-12-17T01:37:22;44.67;;;22.57;;
5428;SDS011;2737;52.386;9.980;2022-12-17T01:40:07;44.67;;;22.90;;
5428;SDS011;2737;52.386;9.980;2022-12-17T01:42:53;51.17;;;22.07;;
5428;SDS011;2737;52.386;9.980;2022-12-17T01:45:39;45.10;;;21.60;;
5428;SDS011;2737;52.386;9.980;2022-12-17T01:48:27;43.97;;;22.90;;
5428;SDS011;2737;52.386;9.980;2022-12-17T01:51:14;45.63;;;21.47;;
5428;SDS011;2737;52.386;9.980;2022-12-17T01:54:00;45.53;;;22.53;;
5428;SDS011;2737;52.386;9.980;2022-12-17T01:56:45;41.10;;;22.87;;
5428;SDS011;2737;52.386;9.980;2022-12-17T01:59:33;47.93;;;22.77;;
5428;SDS011;2737;52.386;9.980;2022-12-17T02:02:25;42.50;;;21.80;;
5428;SDS011;2737;52.386;9.980;2022-12-17T02:05:10;40.63;;;20.33;;
5428;SDS011;2737;52.386;9.980;2022-12-17T02:07:57;41.70;;;20.33;;
5428;SDS011;2737;52.386;9.980;2022-12-17T02:10:51;42.27;;;21.80;;
5428;SDS011;2737;52.386;9.980;2022-12-17T02:13:49;38.50;;;21.50;;
5428;SDS011;2737;52.386;9.980;2022-12-17T02:16:42;51.17;;;21.87;;
5428;SDS011;2737;52.386;9.980;2022-12-17T02:19:38;49.57;;;22.80;;
5428;SDS011;2737;52.386;9.980;2022-12-17T02:22:26;43.67;;;23.13;;
5428;SDS011;2737;52.386;9.980;2022-12-17T02:25:22;44.37;;;21.10;;
5428;SDS011;2737;52.386;9.980;2022-12-17T02:28:16;38.57;;;21.87;;
5428;SDS011;2737;52.386;9.980;2022-12-17T02:31:00;47.03;;;22.87;;
5428;SDS011;2737;52.386;9.980;2022-12-17T02:33:45;44.97;;;21.57;;
5428;SDS011;2737;52.386;9.980;2022-12-17T02:36:32;44.83;;;22.47;;
5428;SDS011;2737;52.386;9.980;2022-12-17T02:39:17;48.33;;;24.50;;
5428;SDS011;2737;52.386;9.980;2022-12-17T02:42:02;39.27;;;22.07;;
5428;SDS011;2737;52.386;9.980;2022-12-17T02:44:48;51.17;;;23.30;;
5428;SDS011;2737;52.386;9.980;2022-12-17T02:47:33;42.37;;;22.93;;
5428;SDS011;2737;52.386;9.980;2022-12-17T02:50:19;40.57;;;20.90;;
5428;SDS011;2737;52.386;9.980;2022-12-17T02:53:04;40.50;;;20.20;;
5428;SDS011;2737;52.386;9.980;2022-12-17T02:55:49;43.07;;;22.53;;
5428;SDS011;2737;52.386;9.980;2022-12-17T02:58:33;41.27;;;21.83;;
5428;SDS011;2737;52.386;9.980;2022-12-17T03:01:19;44.83;;;22.17;;
5428;SDS011;2737;52.386;9.980;2022-12-17T03:04:03;39.83;;;21.00;;
5428;SDS011;2737;52.386;9.980;2022-12-17T03:06:48;43.60;;;20.70;;
5428;SDS011;2737;52.386;9.980;2022-12-17T03:09:32;56.47;;;23.10;;
5428;SDS011;2737;52.386;9.980;2022-12-17T03:12:17;43.17;;;21.83;;
5428;SDS011;2737;52.386;9.980;2022-12-17T03:15:01;51.93;;;22.93;;
5428;SDS011;2737;52.386;9.980;2022-12-17T03:17:48;48.93;;;22.77;;
5428;SDS011;2737;52.386;9.980;2022-12-17T03:20:32;45.97;;;21.50;;
5428;SDS011;2737;52.386;9.980;2022-12-17T03:23:16;39.27;;;20.40;;
5428;SDS011;2737;52.386;9.980;2022-12-17T03:26:00;46.90;;;22.40;;
5428;SDS011;2737;52.386;9.980;2022-12-17T03:28:45;41.00;;;21.20;;
5428;SDS011;2737;52.386;9.980;2022-12-17T03:31:31;41.87;;;19.43;;
5428;SDS011;2737;52.386;9.980;2022-12-17T03:34:17;42.93;;;21.07;;
5428;SDS011;2737;52.386;9.980;2022-12-17T03:37:01;45.97;;;21.57;;
5428;SDS011;2737;52.386;9.980;2022-12-17T03:39:47;40.33;;;19.80;;
5428;SDS011;2737;52.386;9.980;2022-12-17T03:42:31;37.53;;;21.20;;
5428;SDS011;2737;52.386;9.980;2022-12-17T03:45:15;43.67;;;19.93;;
5428;SDS011;2737;52.386;9.980;2022-12-17T03:48:06;41.07;;;20.73;;
5428;SDS011;2737;52.386;9.980;2022-12-17T03:50:54;40.27;;;20.70;;
5428;SDS011;2737;52.386;9.980;2022-12-17T03:53:38;42.83;;;21.20;;
5428;SDS011;2737;52.386;9.980;2022-12-17T03:56:23;35.40;;;19.37;;
5428;SDS011;2737;52.386;9.980;2022-12-17T03:59:08;39.00;;;20.57;;
5428;SDS011;2737;52.386;9.980;2022-12-17T04:01:53;44.43;;;20.30;;
5428;SDS011;2737;52.386;9.980;2022-12-17T04:04:37;47.03;;;20.87;;
5428;SDS011;2737;52.386;9.980;2022-12-17T04:07:23;46.63;;;21.50;;
5428;SDS011;2737;52.386;9.980;2022-12-17T04:10:08;41.27;;;21.37;;
5428;SDS011;2737;52.386;9.980;2022-12-17T04:12:52;46.67;;;20.90;;
5428;SDS011;2737;52.386;9.980;2022-12-17T04:15:36;42.50;;;21.00;;
5428;SDS011;2737;52.386;9.980;2022-12-17T04:18:21;38.87;;;20.63;;
5428;SDS011;2737;52.386;9.980;2022-12-17T04:21:05;41.10;;;19.80;;
5428;SDS011;2737;52.386;9.980;2022-12-17T04:23:51;35.53;;;19.20;;
5428;SDS011;2737;52.386;9.980;2022-12-17T04:26:36;34.87;;;18.30;;
5428;SDS011;2737;52.386;9.980;2022-12-17T04:29:20;35.37;;;18.77;;
5428;SDS011;2737;52.386;9.980;2022-12-17T04:32:05;41.63;;;18.43;;
5428;SDS011;2737;52.386;9.980;2022-12-17T04:34:49;36.70;;;19.57;;
5428;SDS011;2737;52.386;9.980;2022-12-17T04:37:34;39.87;;;19.27;;
5428;SDS011;2737;52.386;9.980;2022-12-17T04:40:19;43.07;;;20.80;;
5428;SDS011;2737;52.386;9.980;2022-12-17T04:43:05;34.13;;;18.00;;
5428;SDS011;2737;52.386;9.980;2022-12-17T04:45:49;38.63;;;17.57;;
5428;SDS011;2737;52.386;9.980;2022-12-17T04:48:34;38.83;;;18.33;;
5428;SDS011;2737;52.386;9.980;2022-12-17T04:51:18;38.47;;;17.43;;
5428;SDS011;2737;52.386;9.980;2022-12-17T04:53:59;32.40;;;15.97;;
5428;SDS011;2737;52.386;9.980;2022-12-17T04:56:45;30.70;;;16.57;;
5428;SDS011;2737;52.386;9.980;2022-12-17T04:59:29;29.70;;;15.37;;
5428;SDS011;2737;52.386;9.980;2022-12-17T05:02:14;28.40;;;13.90;;
5428;SDS011;2737;52.386;9.980;2022-12-17T05:04:58;26.77;;;13.73;;
5428;SDS011;2737;52.386;9.980;2022-12-17T05:07:43;24.60;;;11.63;;
5428;SDS011;2737;52.386;9.980;2022-12-17T05:10:27;24.80;;;12.93;;
5428;SDS011;2737;52.386;9.980;2022-12-17T05:13:13;24.03;;;12.93;;
5428;SDS011;2737;52.386;9.980;2022-12-17T05:15:57;25.00;;;13.90;;
5428;SDS011;2737;52.386;9.980;2022-12-17T05:18:41;30.87;;;12.33;;
5428;SDS011;2737;52.386;9.980;2022-12-17T05:21:26;28.30;;;12.73;;
5428;SDS011;2737;52.386;9.980;2022-12-17T05:24:10;30.33;;;13.10;;
5428;SDS011;2737;52.386;9.980;2022-12-17T05:26:55;27.20;;;12.50;;
5428;SDS011;2737;52.386;9.980;2022-12-17T05:29:41;20.60;;;11.93;;
5428;SDS011;2737;52.386;9.980;2022-12-17T05:32:25;23.33;;;12.60;;
5428;SDS011;2737;52.386;9.980;2022-12-17T05:35:09;33.80;;;13.50;;
5428;SDS011;2737;52.386;9.980;2022-12-17T05:37:54;30.47;;;14.10;;
5428;SDS011;2737;52.386;9.980;2022-12-17T05:40:45;25.70;;;12.13;;
5428;SDS011;2737;52.386;9.980;2022-12-17T05:43:29;32.47;;;13.37;;
5428;SDS011;2737;52.386;9.980;2022-12-17T05:46:15;24.47;;;11.23;;
5428;SDS011;2737;52.386;9.980;2022-12-17T05:48:56;23.43;;;11.33;;
5428;SDS011;2737;52.386;9.980;2022-12-17T05:51:40;22.90;;;12.20;;
5428;SDS011;2737;52.386;9.980;2022-12-17T05:54:25;29.30;;;11.33;;
5428;SDS011;2737;52.386;9.980;2022-12-17T05:57:09;29.27;;;12.73;;
5428;SDS011;2737;52.386;9.980;2022-12-17T05:59:53;26.50;;;11.97;;
5428;SDS011;2737;52.386;9.980;2022-12-17T06:02:39;24.50;;;12.80;;
5428;SDS011;2737;52.386;9.980;2022-12-17T06:05:24;21.60;;;10.97;;
5428;SDS011;2737;52.386;9.980;2022-12-17T06:08:08;23.87;;;11.17;;
5428;SDS011;2737;52.386;9.980;2022-12-17T06:10:53;25.73;;;12.53;;
5428;SDS011;2737;52.386;9.980;2022-12-17T06:13:41;32.43;;;13.77;;
5428;SDS011;2737;52.386;9.980;2022-12-17T06:16:26;20.67;;;10.67;;
5428;SDS011;2737;52.386;9.980;2022-12-17T06:19:23;21.20;;;12.10;;
5428;SDS011;2737;52.386;9.980;2022-12-17T06:22:08;27.83;;;12.13;;
5428;SDS011;2737;52.386;9.980;2022-12-17T06:24:52;27.23;;;11.63;;
5428;SDS011;2737;52.386;9.980;2022-12-17T06:27:37;26.47;;;12.57;;
5428;SDS011;2737;52.386;9.980;2022-12-17T06:30:21;25.20;;;12.23;;
5428;SDS011;2737;52.386;9.980;2022-12-17T06:33:07;25.97;;;12.53;;
5428;SDS011;2737;52.386;9.980;2022-12-17T06:35:55;27.50;;;12.93;;
5428;SDS011;2737;52.386;9.980;2022-12-17T06:38:40;25.10;;;11.77;;
5428;SDS011;2737;52.386;9.980;2022-12-17T06:41:24;22.70;;;11.93;;
5428;SDS011;2737;52.386;9.980;2022-12-17T06:44:09;28.60;;;12.73;;
5428;SDS011;2737;52.386;9.980;2022-12-17T06:46:53;23.33;;;12.00;;
5428;SDS011;2737;52.386;9.980;2022-12-17T06:49:38;21.53;;;10.63;;
5428;SDS011;2737;52.386;9.980;2022-12-17T06:52:23;27.80;;;12.03;;
5428;SDS011;2737;52.386;9.980;2022-12-17T06:55:08;21.83;;;11.40;;
5428;SDS011;2737;52.386;9.980;2022-12-17T06:57:56;21.43;;;11.27;;
5428;SDS011;2737;52.386;9.980;2022-12-17T07:00:37;24.13;;;12.30;;
5428;SDS011;2737;52.386;9.980;2022-12-17T07:03:21;26.73;;;11.97;;
5428;SDS011;2737;52.386;9.980;2022-12-17T07:06:20;27.77;;;12.03;;
5428;SDS011;2737;52.386;9.980;2022-12-17T07:09:06;19.90;;;10.13;;
5428;SDS011;2737;52.386;9.980;2022-12-17T07:11:51;22.67;;;10.53;;
5428;SDS011;2737;52.386;9.980;2022-12-17T07:14:35;22.50;;;10.70;;
5428;SDS011;2737;52.386;9.980;2022-12-17T07:17:19;22.27;;;11.20;;
5428;SDS011;2737;52.386;9.980;2022-12-17T07:20:04;19.60;;;10.20;;
5428;SDS011;2737;52.386;9.980;2022-12-17T07:22:52;20.77;;;11.00;;
5428;SDS011;2737;52.386;9.980;2022-12-17T07:25:39;31.83;;;10.73;;
5428;SDS011;2737;52.386;9.980;2022-12-17T07:28:23;25.27;;;11.10;;
5428;SDS011;2737;52.386;9.980;2022-12-17T07:31:08;23.40;;;11.33;;
5428;SDS011;2737;52.386;9.980;2022-12-17T07:33:52;25.53;;;11.33;;
5428;SDS011;2737;52.386;9.980;2022-12-17T07:36:39;21.80;;;11.00;;
5428;SDS011;2737;52.386;9.980;2022-12-17T07:39:23;24.07;;;11.63;;
5428;SDS011;2737;52.386;9.980;2022-12-17T07:42:09;19.17;;;9.93;;
5428;SDS011;2737;52.386;9.980;2022-12-17T07:44:53;29.77;;;11.20;;
5428;SDS011;2737;52.386;9.980;2022-12-17T07:47:38;24.97;;;10.70;;
5428;SDS011;2737;52.386;9.980;2022-12-17T07:50:22;23.33;;;9.10;;
5428;SDS011;2737;52.386;9.980;2022-12-17T07:53:07;22.37;;;10.23;;
5428;SDS011;2737;52.386;9.980;2022-12-17T07:55:51;16.93;;;9.17;;
5428;SDS011;2737;52.386;9.980;2022-12-17T07:58:48;17.50;;;9.60;;
5428;SDS011;2737;52.386;9.980;2022-12-17T08:01:33;22.97;;;9.80;;
5428;SDS011;2737;52.386;9.980;2022-12-17T08:04:18;19.30;;;9.63;;
5428;SDS011;2737;52.386;9.980;2022-12-17T08:07:02;14.90;;;8.70;;
5428;SDS011;2737;52.386;9.980;2022-12-17T08:09:46;25.57;;;10.70;;
5428;SDS011;2737;52.386;9.980;2022-12-17T08:12:31;22.13;;;9.20;;
5428;SDS011;2737;52.386;9.980;2022-12-17T08:15:16;26.50;;;10.90;;
5428;SDS011;2737;52.386;9.980;2022-12-17T08:18:01;22.60;;;11.00;;
5428;SDS011;2737;52.386;9.980;2022-12-17T08:20:46;31.93;;;11.33;;
5428;SDS011;2737;52.386;9.980;2022-12-17T08:23:30;24.23;;;12.17;;
5428;SDS011;2737;52.386;9.980;2022-12-17T08:26:15;26.30;;;11.80;;
5428;SDS011;2737;52.386;9.980;2022-12-17T08:28:59;32.83;;;12.30;;
5428;SDS011;2737;52.386;9.980;2022-12-17T08:31:45;34.73;;;13.67;;
5428;SDS011;2737;52.386;9.980;2022-12-17T08:34:29;22.07;;;11.07;;
5428;SDS011;2737;52.386;9.980;2022-12-17T08:37:14;23.97;;;12.57;;
5428;SDS011;2737;52.386;9.980;2022-12-17T08:39:58;31.63;;;10.40;;
5428;SDS011;2737;52.386;9.980;2022-12-17T08:42:43;23.27;;;11.17;;
5428;SDS011;2737;52.386;9.980;2022-12-17T08:45:27;20.23;;;10.60;;
5428;SDS011;2737;52.386;9.980;2022-12-17T08:48:13;22.00;;;11.10;;
5428;SDS011;2737;52.386;9.980;2022-12-17T08:51:09;22.23;;;10.27;;
5428;SDS011;2737;52.386;9.980;2022-12-17T08:53:54;18.60;;;9.50;;
5428;SDS011;2737;52.386;9.980;2022-12-17T08:56:38;23.00;;;10.30;;
5428;SDS011;2737;52.386;9.980;2022-12-17T08:59:22;19.47;;;10.47;;
5428;SDS011;2737;52.386;9.980;2022-12-17T09:02:08;24.13;;;9.27;;
5428;SDS011;2737;52.386;9.980;2022-12-17T09:04:54;18.17;;;9.60;;
5428;SDS011;2737;52.386;9.980;2022-12-17T09:07:38;22.50;;;10.57;;
5428;SDS011;2737;52.386;9.980;2022-12-17T09:10:25;23.07;;;9.93;;
5428;SDS011;2737;52.386;9.980;2022-12-17T09:13:09;21.60;;;9.40;;
5428;SDS011;2737;52.386;9.980;2022-12-17T09:15:54;15.90;;;9.03;;
5428;SDS011;2737;52.386;9.980;2022-12-17T09:18:44;23.07;;;10.50;;
5428;SDS011;2737;52.386;9.980;2022-12-17T09:21:30;17.23;;;9.10;;
5428;SDS011;2737;52.386;9.980;2022-12-17T09:24:15;16.53;;;9.40;;
5428;SDS011;2737;52.386;9.980;2022-12-17T09:26:59;19.47;;;9.73;;
5428;SDS011;2737;52.386;9.980;2022-12-17T09:29:44;19.90;;;9.73;;
5428;SDS011;2737;52.386;9.980;2022-12-17T09:32:29;23.73;;;10.83;;
5428;SDS011;2737;52.386;9.980;2022-12-17T09:35:14;20.47;;;11.70;;
5428;SDS011;2737;52.386;9.980;2022-12-17T09:37:59;26.90;;;12.80;;
5428;SDS011;2737;52.386;9.980;2022-12-17T09:40:44;16.80;;;10.20;;
5428;SDS011;2737;52.386;9.980;2022-12-17T09:43:33;21.70;;;12.27;;
5428;SDS011;2737;52.386;9.980;2022-12-17T09:46:26;26.53;;;12.63;;
5428;SDS011;2737;52.386;9.980;2022-12-17T09:49:16;29.10;;;10.70;;
5428;SDS011;2737;52.386;9.980;2022-12-17T09:52:03;24.57;;;10.47;;
5428;SDS011;2737;52.386;9.980;2022-12-17T09:54:59;24.40;;;10.30;;
5428;SDS011;2737;52.386;9.980;2022-12-17T09:57:44;19.90;;;9.73;;
5428;SDS011;2737;52.386;9.980;2022-12-17T10:00:32;20.50;;;10.53;;
5428;SDS011;2737;52.386;9.980;2022-12-17T10:03:18;17.50;;;10.20;;
5428;SDS011;2737;52.386;9.980;2022-12-17T10:06:16;50.50;;;22.87;;
5428;SDS011;2737;52.386;9.980;2022-12-17T10:09:08;25.30;;;12.33;;
5428;SDS011;2737;52.386;9.980;2022-12-17T10:11:56;20.00;;;11.20;;
5428;SDS011;2737;52.386;9.980;2022-12-17T10:14:45;26.50;;;10.57;;
5428;SDS011;2737;52.386;9.980;2022-12-17T10:17:29;19.53;;;11.63;;
5428;SDS011;2737;52.386;9.980;2022-12-17T10:20:16;26.80;;;10.53;;
5428;SDS011;2737;52.386;9.980;2022-12-17T10:23:21;21.07;;;10.50;;
5428;SDS011;2737;52.386;9.980;2022-12-17T10:26:06;23.60;;;11.77;;
5428;SDS011;2737;52.386;9.980;2022-12-17T10:29:00;28.60;;;12.67;;
5428;SDS011;2737;52.386;9.980;2022-12-17T10:31:49;28.60;;;13.67;;
5428;SDS011;2737;52.386;9.980;2022-12-17T10:34:34;26.83;;;12.20;;
5428;SDS011;2737;52.386;9.980;2022-12-17T10:37:20;21.70;;;11.70;;
5428;SDS011;2737;52.386;9.980;2022-12-17T10:40:11;22.23;;;11.07;;
5428;SDS011;2737;52.386;9.980;2022-12-17T10:43:03;22.30;;;11.63;;
5428;SDS011;2737;52.386;9.980;2022-12-17T10:46:04;25.90;;;11.00;;
5428;SDS011;2737;52.386;9.980;2022-12-17T10:48:48;16.23;;;8.90;;
5428;SDS011;2737;52.386;9.980;2022-12-17T10:51:34;23.80;;;11.03;;
5428;SDS011;2737;52.386;9.980;2022-12-17T10:54:21;25.00;;;11.33;;
5428;SDS011;2737;52.386;9.980;2022-12-17T10:57:08;28.20;;;11.87;;
5428;SDS011;2737;52.386;9.980;2022-12-17T11:00:17;20.50;;;11.03;;
5428;SDS011;2737;52.386;9.980;2022-12-17T11:03:18;27.40;;;12.33;;
5428;SDS011;2737;52.386;9.980;2022-12-17T11:06:08;16.30;;;9.97;;
5428;SDS011;2737;52.386;9.980;2022-12-17T11:08:55;19.30;;;9.30;;
5428;SDS011;2737;52.386;9.980;2022-12-17T11:11:42;20.37;;;8.90;;
5428;SDS011;2737;52.386;9.980;2022-12-17T11:14:27;36.60;;;15.07;;
5428;SDS011;2737;52.386;9.980;2022-12-17T11:17:13;20.73;;;10.97;;
5428;SDS011;2737;52.386;9.980;2022-12-17T11:20:05;24.00;;;10.90;;
5428;SDS011;2737;52.386;9.980;2022-12-17T11:22:57;18.70;;;9.20;;
5428;SDS011;2737;52.386;9.980;2022-12-17T11:25:44;20.60;;;8.90;;
5428;SDS011;2737;52.386;9.980;2022-12-17T11:28:35;16.97;;;9.23;;
5428;SDS011;2737;52.386;9.980;2022-12-17T11:34:30;16.40;;;8.20;;
5428;SDS011;2737;52.386;9.980;2022-12-17T11:37:33;13.03;;;8.00;;
5428;SDS011;2737;52.386;9.980;2022-12-17T11:40:22;15.83;;;8.23;;
5428;SDS011;2737;52.386;9.980;2022-12-17T11:43:16;18.20;;;9.07;;
5428;SDS011;2737;52.386;9.980;2022-12-17T11:46:08;15.93;;;7.77;;
5428;SDS011;2737;52.386;9.980;2022-12-17T11:49:03;16.53;;;8.17;;
5428;SDS011;2737;52.386;9.980;2022-12-17T11:51:55;14.63;;;8.70;;
5428;SDS011;2737;52.386;9.980;2022-12-17T11:55:01;17.43;;;7.97;;
5428;SDS011;2737;52.386;9.980;2022-12-17T11:57:51;21.00;;;8.27;;
5428;SDS011;2737;52.386;9.980;2022-12-17T12:00:40;19.70;;;8.20;;
5428;SDS011;2737;52.386;9.980;2022-12-17T12:03:33;16.10;;;8.27;;
5428;SDS011;2737;52.386;9.980;2022-12-17T12:06:27;15.77;;;7.83;;
5428;SDS011;2737;52.386;9.980;2022-12-17T12:09:20;21.10;;;8.60;;
5428;SDS011;2737;52.386;9.980;2022-12-17T12:12:14;20.63;;;10.83;;
5428;SDS011;2737;52.386;9.980;2022-12-17T12:15:23;18.97;;;9.37;;
5428;SDS011;2737;52.386;9.980;2022-12-17T12:18:19;21.77;;;10.67;;
5428;SDS011;2737;52.386;9.980;2022-12-17T12:21:20;40.43;;;15.93;;
5428;SDS011;2737;52.386;9.980;2022-12-17T12:24:16;26.70;;;11.60;;
5428;SDS011;2737;52.386;9.980;2022-12-17T12:27:22;15.77;;;8.20;;
5428;SDS011;2737;52.386;9.980;2022-12-17T12:30:14;15.43;;;8.50;;
5428;SDS011;2737;52.386;9.980;2022-12-17T12:33:02;18.57;;;7.30;;
5428;SDS011;2737;52.386;9.980;2022-12-17T12:35:58;17.57;;;6.90;;
5428;SDS011;2737;52.386;9.980;2022-12-17T12:38:44;14.13;;;7.13;;
5428;SDS011;2737;52.386;9.980;2022-12-17T12:41:35;15.57;;;7.50;;
5428;SDS011;2737;52.386;9.980;2022-12-17T12:44:28;17.50;;;7.40;;
5428;SDS011;2737;52.386;9.980;2022-12-17T12:47:21;21.07;;;8.47;;
5428;SDS011;2737;52.386;9.980;2022-12-17T12:50:13;21.83;;;10.10;;
5428;SDS011;2737;52.386;9.980;2022-12-17T12:53:02;22.17;;;9.40;;
5428;SDS011;2737;52.386;9.980;2022-12-17T12:55:47;19.13;;;10.20;;
5428;SDS011;2737;52.386;9.980;2022-12-17T12:58:32;16.97;;;8.60;;
5428;SDS011;2737;52.386;9.980;2022-12-17T13:01:19;18.00;;;8.17;;
5428;SDS011;2737;52.386;9.980;2022-12-17T13:04:21;23.70;;;10.10;;
5428;SDS011;2737;52.386;9.980;2022-12-17T13:07:19;88.50;;;25.87;;
5428;SDS011;2737;52.386;9.980;2022-12-17T13:09:48;54.57;;;19.10;;
5428;SDS011;2737;52.386;9.980;2022-12-17T13:12:19;77.27;;;23.37;;
5428;SDS011;2737;52.386;9.980;2022-12-17T13:14:52;67.77;;;19.47;;
5428;SDS011;2737;52.386;9.980;2022-12-17T13:17:35;48.23;;;16.00;;
5428;SDS011;2737;52.386;9.980;2022-12-17T13:20:21;39.33;;;16.07;;
5428;SDS011;2737;52.386;9.980;2022-12-17T13:22:52;23.43;;;10.90;;
5428;SDS011;2737;52.386;9.980;2022-12-17T13:25:29;18.97;;;8.40;;
5428;SDS011;2737;52.386;9.980;2022-12-17T13:27:56;20.70;;;9.93;;
5428;SDS011;2737;52.386;9.980;2022-12-17T13:30:30;18.10;;;9.27;;
5428;SDS011;2737;52.386;9.980;2022-12-17T13:35:53;24.93;;;9.60;;
5428;SDS011;2737;52.386;9.980;2022-12-17T13:38:30;18.10;;;9.30;;
5428;SDS011;2737;52.386;9.980;2022-12-17T13:41:05;15.97;;;8.87;;
5428;SDS011;2737;52.386;9.980;2022-12-17T13:43:37;20.07;;;9.27;;
5428;SDS011;2737;52.386;9.980;2022-12-17T13:46:15;24.03;;;10.40;;
5428;SDS011;2737;52.386;9.980;2022-12-17T13:48:52;22.47;;;10.20;;
5428;SDS011;2737;52.386;9.980;2022-12-17T13:51:23;26.13;;;11.97;;
5428;SDS011;2737;52.386;9.980;2022-12-17T13:53:52;16.30;;;9.40;;
5428;SDS011;2737;52.386;9.980;2022-12-17T13:56:21;21.00;;;11.03;;
5428;SDS011;2737;52.386;9.980;2022-12-17T13:58:50;25.20;;;13.27;;
5428;SDS011;2737;52.386;9.980;2022-12-17T14:01:18;26.07;;;12.20;;
5428;SDS011;2737;52.386;9.980;2022-12-17T14:03:48;23.60;;;11.10;;
5428;SDS011;2737;52.386;9.980;2022-12-17T14:06:18;21.93;;;11.83;;
5428;SDS011;2737;52.386;9.980;2022-12-17T14:08:46;24.50;;;12.23;;
5428;SDS011;2737;52.386;9.980;2022-12-17T14:11:15;32.17;;;14.73;;
5428;SDS011;2737;52.386;9.980;2022-12-17T14:14:00;24.70;;;13.00;;
5428;SDS011;2737;52.386;9.980;2022-12-17T14:16:28;25.50;;;12.87;;
5428;SDS011;2737;52.386;9.980;2022-12-17T14:18:56;30.57;;;15.13;;
5428;SDS011;2737;52.386;9.980;2022-12-17T14:21:26;30.23;;;13.90;;
5428;SDS011;2737;52.386;9.980;2022-12-17T14:23:54;23.10;;;11.00;;
5428;SDS011;2737;52.386;9.980;2022-12-17T14:26:22;25.43;;;13.53;;
5428;SDS011;2737;52.386;9.980;2022-12-17T14:28:50;31.60;;;14.93;;
5428;SDS011;2737;52.386;9.980;2022-12-17T14:31:20;29.13;;;15.67;;
5428;SDS011;2737;52.386;9.980;2022-12-17T14:33:58;39.97;;;16.77;;
5428;SDS011;2737;52.386;9.980;2022-12-17T14:36:32;30.67;;;16.20;;
5428;SDS011;2737;52.386;9.980;2022-12-17T14:39:01;27.77;;;14.60;;
5428;SDS011;2737;52.386;9.980;2022-12-17T14:41:36;25.60;;;14.40;;
5428;SDS011;2737;52.386;9.980;2022-12-17T14:44:23;24.37;;;13.10;;
5428;SDS011;2737;52.386;9.980;2022-12-17T14:46:53;20.30;;;11.50;;
5428;SDS011;2737;52.386;9.980;2022-12-17T14:49:31;18.73;;;11.23;;
5428;SDS011;2737;52.386;9.980;2022-12-17T14:52:10;23.27;;;12.00;;
5428;SDS011;2737;52.386;9.980;2022-12-17T14:54:42;25.27;;;14.30;;
5428;SDS011;2737;52.386;9.980;2022-12-17T14:57:17;28.80;;;14.50;;
5428;SDS011;2737;52.386;9.980;2022-12-17T14:59:45;23.13;;;12.77;;
5428;SDS011;2737;52.386;9.980;2022-12-17T15:02:16;27.30;;;13.97;;
5428;SDS011;2737;52.386;9.980;2022-12-17T15:04:47;32.00;;;17.50;;
5428;SDS011;2737;52.386;9.980;2022-12-17T15:07:18;33.53;;;17.07;;
5428;SDS011;2737;52.386;9.980;2022-12-17T15:09:49;28.47;;;14.17;;
5428;SDS011;2737;52.386;9.980;2022-12-17T15:12:17;30.10;;;13.30;;
5428;SDS011;2737;52.386;9.980;2022-12-17T15:14:44;30.30;;;14.27;;
5428;SDS011;2737;52.386;9.980;2022-12-17T15:17:11;41.97;;;16.50;;
5428;SDS011;2737;52.386;9.980;2022-12-17T15:19:39;28.27;;;13.20;;
5428;SDS011;2737;52.386;9.980;2022-12-17T15:22:08;29.97;;;13.40;;
5428;SDS011;2737;52.386;9.980;2022-12-17T15:24:41;25.47;;;12.03;;
5428;SDS011;2737;52.386;9.980;2022-12-17T15:27:10;23.93;;;11.97;;
5428;SDS011;2737;52.386;9.980;2022-12-17T15:29:38;23.40;;;10.77;;
5428;SDS011;2737;52.386;9.980;2022-12-17T15:32:05;20.03;;;11.23;;
5428;SDS011;2737;52.386;9.980;2022-12-17T15:34:32;20.77;;;11.23;;
5428;SDS011;2737;52.386;9.980;2022-12-17T15:36:59;21.80;;;12.47;;
5428;SDS011;2737;52.386;9.980;2022-12-17T15:39:26;20.43;;;11.73;;
5428;SDS011;2737;52.386;9.980;2022-12-17T15:41:55;25.57;;;11.93;;
5428;SDS011;2737;52.386;9.980;2022-12-17T15:44:39;24.37;;;11.23;;
5428;SDS011;2737;52.386;9.980;2022-12-17T15:47:06;20.50;;;11.00;;
5428;SDS011;2737;52.386;9.980;2022-12-17T15:49:34;21.93;;;11.63;;
5428;SDS011;2737;52.386;9.980;2022-12-17T15:52:01;22.97;;;11.63;;
5428;SDS011;2737;52.386;9.980;2022-12-17T15:54:28;22.93;;;11.70;;
5428;SDS011;2737;52.386;9.980;2022-12-17T15:56:56;16.60;;;10.43;;
5428;SDS011;2737;52.386;9.980;2022-12-17T15:59:23;22.40;;;10.70;;
5428;SDS011;2737;52.386;9.980;2022-12-17T16:01:50;24.70;;;11.63;;
5428;SDS011;2737;52.386;9.980;2022-12-17T16:04:17;22.57;;;12.20;;
5428;SDS011;2737;52.386;9.980;2022-12-17T16:06:44;25.80;;;12.97;;
5428;SDS011;2737;52.386;9.980;2022-12-17T16:09:12;23.90;;;12.17;;
5428;SDS011;2737;52.386;9.980;2022-12-17T16:11:39;22.90;;;12.10;;
5428;SDS011;2737;52.386;9.980;2022-12-17T16:14:08;21.43;;;12.80;;
5428;SDS011;2737;52.386;9.980;2022-12-17T16:16:35;28.77;;;14.03;;
5428;SDS011;2737;52.386;9.980;2022-12-17T16:19:02;26.57;;;13.17;;
5428;SDS011;2737;52.386;9.980;2022-12-17T16:21:32;24.43;;;13.80;;
5428;SDS011;2737;52.386;9.980;2022-12-17T16:23:59;27.37;;;12.83;;
5428;SDS011;2737;52.386;9.980;2022-12-17T16:26:26;24.57;;;12.50;;
5428;SDS011;2737;52.386;9.980;2022-12-17T16:28:53;32.97;;;13.27;;
5428;SDS011;2737;52.386;9.980;2022-12-17T16:31:24;21.20;;;11.70;;
5428;SDS011;2737;52.386;9.980;2022-12-17T16:33:51;22.13;;;11.50;;